• Join FlightAware (Why Join?)
  • Login
  • US Flag 
12:02PM EDT


 

Airport Tracker/Info


-or-


 

Live Flight TrackerFlight Track Log ✈ RPA3253 ✈ 20-Jul-2013 ✈ KPWM - KCLT

Flight Track Log - Related Links

Times and Time Zones

All times are in EDT time to prevent confusion due to time zone crossing. See the RPA3253 flight status page for this flight to view local times or setup timezone preferences in your user account.

Time Position Orientation Groundspeed Altitude Reporting Facility
EDT Latitude Longitude Course Direction KTS MPH feet Rate Location/Type
06:07PM 43.6528 -70.3683 232° Southwest 148 170 1,700  Level Boston Center
06:08PM 43.6517 -70.4200 268° West 184 212 2,700 1,320 Climbing Boston Center
06:09PM 43.4680 -70.2546 229° Southwest  Level FlightAware Approximate
06:09PM 43.6092 -70.4931 231° Southwest 273 314 4,400  Level Boston Center
06:10PM 43.4087 -70.3611 226° Southwest  Level FlightAware Approximate
06:10PM 43.5308 -70.5328 200° South 279 321 5,700  Level Boston Center
06:11PM 43.3403 -70.4569 226° Southwest  Level FlightAware Approximate
06:11PM 43.4500 -70.5725 200° South 284 327 8,500  Level Boston Center
06:12PM 43.2792 -70.5615 232° Southwest  Level FlightAware Approximate
06:12PM 43.3717 -70.6178 203° Southwest 284 327 11,400  Level Boston Center
06:13PM 43.3078 -70.6625 207° Southwest 289 333 13,400 1,860 Climbing Boston Center
06:14PM 43.2500 -70.7069 209° Southwest 294 338 15,200 2,220 Climbing Boston Center
06:15PM 43.1572 -70.7750 208° Southwest 313 360 17,900 2,400 Climbing Boston Center
06:16PM 43.0853 -70.8339 211° Southwest 307 353 20,000 1,800 Climbing Boston Center
06:17PM 43.0028 -70.8956 209° Southwest 316 364 21,600 1,620 Climbing Boston Center
06:18PM 42.9181 -70.9572 208° Southwest 335 386 23,300 1,500 Climbing Boston Center
06:19PM 42.8339 -71.0669 224° Southwest 347 399 25,200 1,500 Climbing Boston Center
06:20PM 42.7497 -71.1819 225° Southwest 353 406 27,000 1,440 Climbing Boston Center
06:21PM 42.6842 -71.2822 228° Southwest 358 412 28,100 1,080 Climbing Boston Center
06:22PM 42.6206 -71.3906 231° Southwest 368 423 29,200 1,020 Climbing Boston Center
06:23PM 42.5592 -71.4986 232° Southwest 368 423 30,200 960 Climbing Boston Center
06:24PM 42.4869 -71.6067 228° Southwest 374 430 31,200 960 Climbing Boston Center
06:25PM 42.4211 -71.7172 231° Southwest 379 436 32,200 900 Climbing Boston Center
06:26PM 42.3550 -71.8247 230° Southwest 379 436 33,100 900 Climbing Boston Center
06:27PM 42.2908 -71.9350 232° Southwest 379 436 34,000 420 Climbing Boston Center
06:28PM 42.2247 -72.0447 231° Southwest 379 436 34,000  Level Boston Center
06:29PM 42.1292 -72.1239 212° Southwest 379 436 34,000  Level Boston Center
06:30PM 42.0439 -72.2192 220° Southwest 395 455 34,000  Level Boston Center
06:31PM 41.9753 -72.3422 233° Southwest 395 455 34,000  Level Boston Center
06:33PM 41.9106 -72.4597 234° Southwest 400 460 34,000  Level Boston Center
06:34PM 41.8292 -72.6072 234° Southwest 412 474 34,000  Level Boston Center
06:35PM 41.7644 -72.7267 234° Southwest 412 474 34,000  Level Boston Center
06:36PM 41.6972 -72.8461 233° Southwest 407 468 34,000  Level Boston Center
06:37PM 41.6303 -72.9678 234° Southwest 407 468 34,100 360 Climbing Boston Center
06:38PM 41.5628 -73.0864 233° Southwest 407 468 34,800 600 Climbing Boston Center
06:39PM 41.4975 -73.2022 233° Southwest 407 468 35,400 600 Climbing Boston Center
06:40PM 41.4319 -73.3233 234° Southwest 402 463 36,000 180 Climbing Boston Center
06:42PM 41.2886 -73.5739 233° Southwest 406 467 36,000  Level New York Center
06:43PM 41.2214 -73.6869 232° Southwest 406 467 36,000  Level New York Center
06:44PM 41.1539 -73.8022 232° Southwest 406 467 36,000  Level New York Center
06:45PM 41.0967 -73.9264 239° Southwest 406 467 36,000  Level New York Center
06:46PM 41.0308 -74.0469 234° Southwest 401 461 36,000  Level New York Center
06:47PM 40.9631 -74.1592 231° Southwest 401 461 36,000  Level New York Center
06:48PM 40.8936 -74.2572 227° Southwest 408 470 36,000  Level New York Center
06:49PM 40.8194 -74.3631 227° Southwest 408 470 36,000  Level New York Center
06:50PM 40.7433 -74.4714 227° Southwest 408 470 36,000  Level New York Center
06:51PM 40.6631 -74.5711 223° Southwest 403 464 36,000  Level New York Center
06:52PM 40.5803 -74.6758 224° Southwest 408 470 36,000  Level New York Center
06:53PM 40.5078 -74.7889 230° Southwest 414 476 36,000  Level New York Center
06:54PM 40.4331 -74.9047 230° Southwest 414 476 36,000  Level New York Center
06:55PM 40.3581 -75.0172 229° Southwest 419 482 36,000  Level New York Center
06:56PM 40.2853 -75.1297 230° Southwest 419 482 36,000  Level New York Center
06:57PM 40.2100 -75.2419 229° Southwest 414 476 36,000  Level New York Center
06:58PM 40.1328 -75.3564 229° Southwest 419 482 36,000  Level New York Center
06:59PM 40.0508 -75.4811 229° Southwest 419 482 36,000  Level New York Center
07:00PM 39.9731 -75.5950 228° Southwest 419 482 36,000  Level New York Center
07:01PM 39.8975 -75.7089 229° Southwest 419 482 36,000  Level New York Center
07:02PM 39.8261 -75.8228 231° Southwest 419 482 36,000  Level New York Center
07:03PM 39.7108 -76.0094 231° Southwest 413 475 36,000  Level Washington Center
07:04PM 39.6394 -76.1197 230° Southwest 413 475 36,000  Level Washington Center
07:05PM 39.5681 -76.2322 231° Southwest 408 470 36,000  Level Washington Center
07:06PM 39.4944 -76.3444 230° Southwest 408 470 36,000  Level Washington Center
07:07PM 39.4231 -76.4567 231° Southwest 408 470 36,000  Level Washington Center
07:08PM 39.3450 -76.5711 229° Southwest 408 470 36,000  Level Washington Center
07:09PM 39.2753 -76.6828 231° Southwest 408 470 36,000  Level Washington Center
07:10PM 39.2033 -76.7942 230° Southwest 408 470 36,000  Level Washington Center
07:11PM 39.1314 -76.9056 230° Southwest 408 470 36,000  Level Washington Center
07:12PM 39.0508 -77.0297 230° Southwest 413 475 36,000  Level Washington Center
07:13PM 38.9642 -77.1267 221° Southwest 413 475 36,000  Level Washington Center
07:14PM 38.8753 -77.2236 220° Southwest 413 475 36,000  Level Washington Center
07:15PM 38.7842 -77.3200 220° Southwest 424 488 36,000  Level Washington Center
07:16PM 38.6953 -77.4164 220° Southwest 424 488 36,000  Level Washington Center
07:17PM 38.6083 -77.5125 221° Southwest 424 488 36,000  Level Washington Center
07:18PM 38.5211 -77.6083 221° Southwest 419 482 36,000  Level Washington Center
07:19PM 38.4342 -77.7042 221° Southwest 413 475 36,000  Level Washington Center
07:20PM 38.3469 -77.7997 221° Southwest 413 475 36,000  Level Washington Center
07:21PM 38.2597 -77.8922 220° Southwest 413 475 36,000  Level Washington Center
07:22PM 38.1722 -77.9847 220° Southwest 413 475 36,000  Level Washington Center
07:23PM 38.0828 -78.0819 221° Southwest 418 481 36,000  Level Washington Center
07:24PM 37.9994 -78.1769 222° Southwest 411 473 36,000  Level Washington Center
07:25PM 37.9347 -78.2747 230° Southwest 406 467 36,000  Level Washington Center
07:26PM 37.8633 -78.3853 231° Southwest 412 474 36,000  Level Washington Center
07:27PM 37.7981 -78.5036 235° Southwest 412 474 36,000  Level Washington Center
07:28PM 37.7344 -78.6219 236° Southwest 412 474 36,000  Level Washington Center
07:29PM 37.6664 -78.7531 237° Southwest 417 480 36,000  Level Washington Center
07:30PM 37.6028 -78.8736 236° Southwest 412 474 36,100  Climbing Washington Center
07:31PM 37.5169 -78.9617 219° Southwest 399 459 36,000 -540 Descending Washington Center
07:32PM 37.4208 -79.0436 214° Southwest 411 473 35,100 -960 Descending Washington Center
07:33PM 37.3244 -79.1256 214° Southwest 422 486 34,100 -960 Descending Washington Center
07:34PM 37.2386 -79.2025 216° Southwest 428 493 33,200 -1,020 Descending Washington Center
07:35PM 37.1400 -79.2889 215° Southwest 434 499 32,200 -600 Descending Washington Center
07:36PM 37.0436 -79.3756 216° Southwest 434 499 32,000 -120 Descending Washington Center
07:37PM 36.9450 -79.4589 214° Southwest 434 499 32,000 -240 Level Washington Center
07:39PM 36.7386 -79.6403 215° Southwest 433 498 31,400 -900 Descending Atlanta Center
07:40PM 36.6433 -79.7206 214° Southwest 433 498 29,300 -2,340 Descending Atlanta Center
07:41PM 36.5442 -79.8061 215° Southwest 423 487 26,800 -2,280 Descending Atlanta Center
07:42PM 36.4550 -79.8831 215° Southwest 408 470 24,800 -2,040 Descending Atlanta Center
07:43PM 36.3700 -79.9572 215° Southwest 396 456 22,800 -1,440 Descending Atlanta Center
07:44PM 36.2869 -80.0283 215° Southwest 385 443 22,000 -420 Descending Atlanta Center
07:45PM 36.2117 -80.0911 214° Southwest 380 437 22,000 -300 Level Atlanta Center
07:46PM 36.1264 -80.1622 214° Southwest 375 432 21,500 -1,200 Descending Atlanta Center
07:47PM 36.0453 -80.2328 215° Southwest 369 425 19,600 -2,100 Descending Atlanta Center
07:48PM 35.9597 -80.3061 215° Southwest 363 418 17,400 -2,220 Descending Atlanta Center
07:49PM 35.9172 -80.3492 219° Southwest 338 389 16,200 -2,220 Descending Atlanta Center
07:50PM 35.8500 -80.4033 213° Southwest 331 381 14,200 -2,160 Descending Atlanta Center
07:50PM 35.8072 -80.4386 214° Southwest 349 402 13,100 -1,740 Descending Atlanta Center
07:51PM 35.7339 -80.4981 213° Southwest 338 389 11,600 -1,680 Descending Atlanta Center
07:52PM 35.6622 -80.5472 209° Southwest 309 356 9,800 -1,800 Descending Atlanta Center
07:53PM 35.6050 -80.5881 210° Southwest 292 336 8,400 -1,740 Descending Atlanta Center
07:54PM 35.5539 -80.6258 211° Southwest 285 328 7,100 -1,500 Descending Atlanta Center
07:55PM 35.4822 -80.6747 209° Southwest 273 314 5,700 -1,020 Descending Atlanta Center
07:56PM 35.4189 -80.7206 211° Southwest 253 291 5,100 -720 Descending Atlanta Center
07:57PM 35.3778 -80.7478 208° Southwest 201 231 4,400 -780 Descending Atlanta Center